Cummings, North Dakota
Current Conditions -  °F | °C
As of 6:01 PM on Sunday 23 Nov 2014 (Local Time) from KGFK Reporting Station
Light Snow Light Snow  
Wind Chill:   Ceiling: 900
Heat Index: 21°   Visibility: 4mi
Dew Point: 19°   Wind: 16mph
Humidity: 93%   Direction: 330°NNW
Pressure: 29.55"   Gusts: NA
Location:  47.51°N, 97.08°W
Report Text: KGFK 240001Z 33014KT 4SM -SN BR OVC009 M06/M07 A2955 RMK AO2 FZRAE2355 CIG 007V012 P0000
Loading
Personal Weather Stations






























Interactive Weather Map New forecast layout! Learn more

10-Day Weather Forecast

Advertisements
Track Severe Weather on mobile